sensor_id;sensor_type;location;lat;lon;timestamp;P1;durP1;ratioP1;P2;durP2;ratioP2
26311;SDS011;14019;56.964;24.016;2023-09-19T00:01:19;24.30;;;14.45;;
26311;SDS011;14019;56.964;24.016;2023-09-19T00:04:09;22.63;;;14.15;;
26311;SDS011;14019;56.964;24.016;2023-09-19T00:06:56;26.63;;;15.63;;
26311;SDS011;14019;56.964;24.016;2023-09-19T00:09:42;23.98;;;14.82;;
26311;SDS011;14019;56.964;24.016;2023-09-19T00:12:29;25.13;;;15.43;;
26311;SDS011;14019;56.964;24.016;2023-09-19T00:15:15;21.88;;;15.18;;
26311;SDS011;14019;56.964;24.016;2023-09-19T00:18:02;24.23;;;15.43;;
26311;SDS011;14019;56.964;24.016;2023-09-19T00:20:51;24.17;;;15.90;;
26311;SDS011;14019;56.964;24.016;2023-09-19T00:23:39;24.63;;;15.77;;
26311;SDS011;14019;56.964;24.016;2023-09-19T00:26:28;28.88;;;16.05;;
26311;SDS011;14019;56.964;24.016;2023-09-19T00:29:15;25.05;;;16.30;;
26311;SDS011;14019;56.964;24.016;2023-09-19T00:32:02;25.80;;;16.23;;
26311;SDS011;14019;56.964;24.016;2023-09-19T00:34:49;31.73;;;16.10;;
26311;SDS011;14019;56.964;24.016;2023-09-19T00:37:35;29.40;;;16.90;;
26311;SDS011;14019;56.964;24.016;2023-09-19T00:40:22;27.27;;;16.52;;
26311;SDS011;14019;56.964;24.016;2023-09-19T00:43:09;26.38;;;16.33;;
26311;SDS011;14019;56.964;24.016;2023-09-19T00:45:55;26.23;;;16.88;;
26311;SDS011;14019;56.964;24.016;2023-09-19T00:48:42;27.75;;;16.33;;
26311;SDS011;14019;56.964;24.016;2023-09-19T00:51:29;27.40;;;16.85;;
26311;SDS011;14019;56.964;24.016;2023-09-19T00:54:16;28.80;;;17.50;;
26311;SDS011;14019;56.964;24.016;2023-09-19T00:57:03;33.17;;;18.88;;
26311;SDS011;14019;56.964;24.016;2023-09-19T00:59:50;27.70;;;16.65;;
26311;SDS011;14019;56.964;24.016;2023-09-19T01:02:36;30.88;;;17.77;;
26311;SDS011;14019;56.964;24.016;2023-09-19T01:05:23;31.35;;;17.67;;
26311;SDS011;14019;56.964;24.016;2023-09-19T01:08:10;32.78;;;18.98;;
26311;SDS011;14019;56.964;24.016;2023-09-19T01:10:59;35.72;;;18.90;;
26311;SDS011;14019;56.964;24.016;2023-09-19T01:22:33;34.42;;;18.65;;
26311;SDS011;14019;56.964;24.016;2023-09-19T01:31:29;30.90;;;19.27;;
26311;SDS011;14019;56.964;24.016;2023-09-19T01:34:19;33.53;;;19.20;;
26311;SDS011;14019;56.964;24.016;2023-09-19T01:37:05;28.75;;;18.15;;
26311;SDS011;14019;56.964;24.016;2023-09-19T01:40:07;33.60;;;19.80;;
26311;SDS011;14019;56.964;24.016;2023-09-19T01:43:19;32.65;;;18.70;;
26311;SDS011;14019;56.964;24.016;2023-09-19T01:51:56;32.28;;;19.63;;
26311;SDS011;14019;56.964;24.016;2023-09-19T01:54:46;32.33;;;20.08;;
26311;SDS011;14019;56.964;24.016;2023-09-19T01:57:35;35.05;;;20.63;;
26311;SDS011;14019;56.964;24.016;2023-09-19T02:00:42;34.00;;;20.02;;
26311;SDS011;14019;56.964;24.016;2023-09-19T02:03:30;32.45;;;20.42;;
26311;SDS011;14019;56.964;24.016;2023-09-19T02:06:17;33.45;;;20.40;;
26311;SDS011;14019;56.964;24.016;2023-09-19T02:09:04;35.15;;;21.00;;
26311;SDS011;14019;56.964;24.016;2023-09-19T02:11:50;33.40;;;20.73;;
26311;SDS011;14019;56.964;24.016;2023-09-19T02:14:36;35.72;;;20.67;;
26311;SDS011;14019;56.964;24.016;2023-09-19T02:17:23;35.95;;;21.00;;
26311;SDS011;14019;56.964;24.016;2023-09-19T02:20:14;37.58;;;21.48;;
26311;SDS011;14019;56.964;24.016;2023-09-19T02:23:02;37.80;;;21.13;;
26311;SDS011;14019;56.964;24.016;2023-09-19T02:28:59;39.90;;;22.27;;
26311;SDS011;14019;56.964;24.016;2023-09-19T02:31:46;45.42;;;23.52;;
26311;SDS011;14019;56.964;24.016;2023-09-19T02:34:33;38.22;;;22.33;;
26311;SDS011;14019;56.964;24.016;2023-09-19T02:37:21;43.03;;;22.88;;
26311;SDS011;14019;56.964;24.016;2023-09-19T02:40:08;38.42;;;22.75;;
26311;SDS011;14019;56.964;24.016;2023-09-19T02:43:05;40.75;;;22.50;;
26311;SDS011;14019;56.964;24.016;2023-09-19T02:45:53;44.75;;;24.60;;
26311;SDS011;14019;56.964;24.016;2023-09-19T02:48:40;37.28;;;22.88;;
26311;SDS011;14019;56.964;24.016;2023-09-19T02:51:27;41.10;;;23.17;;
26311;SDS011;14019;56.964;24.016;2023-09-19T02:54:13;41.25;;;24.08;;
26311;SDS011;14019;56.964;24.016;2023-09-19T02:57:01;38.42;;;23.45;;
26311;SDS011;14019;56.964;24.016;2023-09-19T02:59:49;40.92;;;23.20;;
26311;SDS011;14019;56.964;24.016;2023-09-19T03:02:36;47.63;;;25.58;;
26311;SDS011;14019;56.964;24.016;2023-09-19T03:05:24;45.15;;;24.20;;
26311;SDS011;14019;56.964;24.016;2023-09-19T03:08:12;45.33;;;25.30;;
26311;SDS011;14019;56.964;24.016;2023-09-19T03:11:00;42.35;;;25.23;;
26311;SDS011;14019;56.964;24.016;2023-09-19T03:13:51;39.47;;;25.17;;
26311;SDS011;14019;56.964;24.016;2023-09-19T03:16:39;41.30;;;25.02;;
26311;SDS011;14019;56.964;24.016;2023-09-19T03:19:26;41.20;;;25.30;;
26311;SDS011;14019;56.964;24.016;2023-09-19T03:22:15;41.80;;;24.92;;
26311;SDS011;14019;56.964;24.016;2023-09-19T03:25:03;38.30;;;24.02;;
26311;SDS011;14019;56.964;24.016;2023-09-19T03:27:56;42.13;;;25.38;;
26311;SDS011;14019;56.964;24.016;2023-09-19T03:30:57;47.90;;;26.02;;
26311;SDS011;14019;56.964;24.016;2023-09-19T03:33:45;43.63;;;25.10;;
26311;SDS011;14019;56.964;24.016;2023-09-19T03:36:35;47.85;;;27.10;;
26311;SDS011;14019;56.964;24.016;2023-09-19T03:39:21;43.95;;;25.95;;
26311;SDS011;14019;56.964;24.016;2023-09-19T03:42:08;45.72;;;26.45;;
26311;SDS011;14019;56.964;24.016;2023-09-19T03:44:55;43.95;;;24.63;;
26311;SDS011;14019;56.964;24.016;2023-09-19T03:47:41;42.78;;;25.45;;
26311;SDS011;14019;56.964;24.016;2023-09-19T03:50:28;48.42;;;27.50;;
26311;SDS011;14019;56.964;24.016;2023-09-19T03:53:15;47.00;;;26.42;;
26311;SDS011;14019;56.964;24.016;2023-09-19T03:56:01;45.42;;;27.15;;
26311;SDS011;14019;56.964;24.016;2023-09-19T03:58:50;44.38;;;25.55;;
26311;SDS011;14019;56.964;24.016;2023-09-19T04:01:36;46.67;;;26.58;;
26311;SDS011;14019;56.964;24.016;2023-09-19T04:04:23;46.28;;;26.85;;
26311;SDS011;14019;56.964;24.016;2023-09-19T04:07:12;47.38;;;26.33;;
26311;SDS011;14019;56.964;24.016;2023-09-19T04:09:58;43.28;;;25.95;;
26311;SDS011;14019;56.964;24.016;2023-09-19T04:12:52;46.17;;;26.38;;
26311;SDS011;14019;56.964;24.016;2023-09-19T04:15:39;47.05;;;26.92;;
26311;SDS011;14019;56.964;24.016;2023-09-19T04:18:26;46.63;;;26.75;;
26311;SDS011;14019;56.964;24.016;2023-09-19T04:21:12;46.67;;;26.77;;
26311;SDS011;14019;56.964;24.016;2023-09-19T04:23:58;48.65;;;27.88;;
26311;SDS011;14019;56.964;24.016;2023-09-19T04:26:45;50.00;;;28.80;;
26311;SDS011;14019;56.964;24.016;2023-09-19T04:29:31;46.47;;;27.50;;
26311;SDS011;14019;56.964;24.016;2023-09-19T04:32:17;45.33;;;26.80;;
26311;SDS011;14019;56.964;24.016;2023-09-19T04:35:04;44.45;;;27.40;;
26311;SDS011;14019;56.964;24.016;2023-09-19T04:37:51;50.83;;;27.27;;
26311;SDS011;14019;56.964;24.016;2023-09-19T04:40:37;48.00;;;27.60;;
26311;SDS011;14019;56.964;24.016;2023-09-19T04:43:25;49.05;;;28.15;;
26311;SDS011;14019;56.964;24.016;2023-09-19T04:46:11;47.65;;;26.73;;
26311;SDS011;14019;56.964;24.016;2023-09-19T04:48:59;44.97;;;26.23;;
26311;SDS011;14019;56.964;24.016;2023-09-19T04:51:46;44.28;;;26.85;;
26311;SDS011;14019;56.964;24.016;2023-09-19T04:54:32;46.78;;;26.15;;
26311;SDS011;14019;56.964;24.016;2023-09-19T04:57:21;49.55;;;28.20;;
26311;SDS011;14019;56.964;24.016;2023-09-19T05:00:08;47.83;;;27.40;;
26311;SDS011;14019;56.964;24.016;2023-09-19T05:02:57;51.53;;;27.58;;
26311;SDS011;14019;56.964;24.016;2023-09-19T05:05:44;46.75;;;27.83;;
26311;SDS011;14019;56.964;24.016;2023-09-19T05:08:30;44.08;;;27.05;;
26311;SDS011;14019;56.964;24.016;2023-09-19T05:11:17;49.28;;;27.63;;
26311;SDS011;14019;56.964;24.016;2023-09-19T05:14:04;44.03;;;26.05;;
26311;SDS011;14019;56.964;24.016;2023-09-19T05:16:50;45.80;;;27.15;;
26311;SDS011;14019;56.964;24.016;2023-09-19T05:19:37;45.10;;;27.13;;
26311;SDS011;14019;56.964;24.016;2023-09-19T05:22:26;49.40;;;26.67;;
26311;SDS011;14019;56.964;24.016;2023-09-19T05:25:12;42.42;;;26.35;;
26311;SDS011;14019;56.964;24.016;2023-09-19T05:28:02;42.33;;;26.23;;
26311;SDS011;14019;56.964;24.016;2023-09-19T05:30:49;42.10;;;26.85;;
26311;SDS011;14019;56.964;24.016;2023-09-19T05:33:36;45.67;;;27.70;;
26311;SDS011;14019;56.964;24.016;2023-09-19T05:36:22;44.13;;;25.65;;
26311;SDS011;14019;56.964;24.016;2023-09-19T05:39:09;42.03;;;26.20;;
26311;SDS011;14019;56.964;24.016;2023-09-19T05:41:55;43.13;;;25.48;;
26311;SDS011;14019;56.964;24.016;2023-09-19T05:44:42;50.15;;;26.67;;
26311;SDS011;14019;56.964;24.016;2023-09-19T05:47:29;38.67;;;25.65;;
26311;SDS011;14019;56.964;24.016;2023-09-19T05:50:15;41.28;;;24.27;;
26311;SDS011;14019;56.964;24.016;2023-09-19T05:53:02;37.33;;;23.40;;
26311;SDS011;14019;56.964;24.016;2023-09-19T05:55:49;38.25;;;24.08;;
26311;SDS011;14019;56.964;24.016;2023-09-19T05:58:36;37.00;;;22.30;;
26311;SDS011;14019;56.964;24.016;2023-09-19T06:01:22;35.15;;;22.88;;
26311;SDS011;14019;56.964;24.016;2023-09-19T06:04:08;38.55;;;22.50;;
26311;SDS011;14019;56.964;24.016;2023-09-19T06:06:54;33.95;;;22.13;;
26311;SDS011;14019;56.964;24.016;2023-09-19T06:09:41;36.15;;;21.33;;
26311;SDS011;14019;56.964;24.016;2023-09-19T06:12:27;34.20;;;22.08;;
26311;SDS011;14019;56.964;24.016;2023-09-19T06:15:14;31.50;;;21.23;;
26311;SDS011;14019;56.964;24.016;2023-09-19T06:18:01;32.85;;;19.98;;
26311;SDS011;14019;56.964;24.016;2023-09-19T06:20:51;31.58;;;20.08;;
26311;SDS011;14019;56.964;24.016;2023-09-19T06:23:37;30.92;;;19.60;;
26311;SDS011;14019;56.964;24.016;2023-09-19T06:26:24;36.13;;;20.13;;
26311;SDS011;14019;56.964;24.016;2023-09-19T06:29:12;29.30;;;19.35;;
26311;SDS011;14019;56.964;24.016;2023-09-19T06:31:59;30.50;;;19.45;;
26311;SDS011;14019;56.964;24.016;2023-09-19T06:34:51;29.02;;;18.65;;
26311;SDS011;14019;56.964;24.016;2023-09-19T06:37:40;25.23;;;17.55;;
26311;SDS011;14019;56.964;24.016;2023-09-19T06:40:27;25.60;;;17.60;;
26311;SDS011;14019;56.964;24.016;2023-09-19T06:43:14;29.52;;;17.40;;
26311;SDS011;14019;56.964;24.016;2023-09-19T06:46:03;28.90;;;17.75;;
26311;SDS011;14019;56.964;24.016;2023-09-19T06:48:49;26.48;;;17.55;;
26311;SDS011;14019;56.964;24.016;2023-09-19T06:51:37;25.10;;;17.42;;
26311;SDS011;14019;56.964;24.016;2023-09-19T06:54:23;28.80;;;17.05;;
26311;SDS011;14019;56.964;24.016;2023-09-19T06:57:09;27.02;;;17.10;;
26311;SDS011;14019;56.964;24.016;2023-09-19T06:59:55;25.52;;;16.85;;
26311;SDS011;14019;56.964;24.016;2023-09-19T07:02:42;25.08;;;17.13;;
26311;SDS011;14019;56.964;24.016;2023-09-19T07:05:28;24.70;;;16.27;;
26311;SDS011;14019;56.964;24.016;2023-09-19T07:08:15;25.10;;;16.63;;
26311;SDS011;14019;56.964;24.016;2023-09-19T07:11:04;25.23;;;17.40;;
26311;SDS011;14019;56.964;24.016;2023-09-19T07:13:51;25.23;;;16.42;;
26311;SDS011;14019;56.964;24.016;2023-09-19T07:16:38;22.58;;;15.85;;
26311;SDS011;14019;56.964;24.016;2023-09-19T07:19:27;26.25;;;16.33;;
26311;SDS011;14019;56.964;24.016;2023-09-19T07:22:13;26.13;;;16.40;;
26311;SDS011;14019;56.964;24.016;2023-09-19T07:25:00;26.05;;;16.23;;
26311;SDS011;14019;56.964;24.016;2023-09-19T07:27:46;22.45;;;16.05;;
26311;SDS011;14019;56.964;24.016;2023-09-19T07:30:35;20.45;;;15.30;;
26311;SDS011;14019;56.964;24.016;2023-09-19T07:33:22;21.85;;;14.82;;
26311;SDS011;14019;56.964;24.016;2023-09-19T07:36:12;25.83;;;15.25;;
26311;SDS011;14019;56.964;24.016;2023-09-19T07:38:59;20.23;;;14.38;;
26311;SDS011;14019;56.964;24.016;2023-09-19T07:42:05;20.85;;;14.63;;
26311;SDS011;14019;56.964;24.016;2023-09-19T07:44:52;23.83;;;15.07;;
26311;SDS011;14019;56.964;24.016;2023-09-19T07:47:39;21.23;;;14.43;;
26311;SDS011;14019;56.964;24.016;2023-09-19T07:50:25;22.30;;;14.45;;
26311;SDS011;14019;56.964;24.016;2023-09-19T07:53:12;21.17;;;14.45;;
26311;SDS011;14019;56.964;24.016;2023-09-19T07:56:02;23.63;;;14.80;;
26311;SDS011;14019;56.964;24.016;2023-09-19T07:58:49;18.60;;;14.02;;
26311;SDS011;14019;56.964;24.016;2023-09-19T08:01:36;18.25;;;13.20;;
26311;SDS011;14019;56.964;24.016;2023-09-19T08:04:22;20.67;;;14.00;;
26311;SDS011;14019;56.964;24.016;2023-09-19T08:07:11;22.80;;;13.65;;
26311;SDS011;14019;56.964;24.016;2023-09-19T08:09:58;22.33;;;14.15;;
26311;SDS011;14019;56.964;24.016;2023-09-19T08:12:46;21.48;;;13.45;;
26311;SDS011;14019;56.964;24.016;2023-09-19T08:15:32;20.52;;;13.43;;
26311;SDS011;14019;56.964;24.016;2023-09-19T08:18:22;19.33;;;13.27;;
26311;SDS011;14019;56.964;24.016;2023-09-19T08:21:08;19.00;;;13.30;;
26311;SDS011;14019;56.964;24.016;2023-09-19T08:23:56;18.35;;;13.10;;
26311;SDS011;14019;56.964;24.016;2023-09-19T08:26:43;18.73;;;12.82;;
26311;SDS011;14019;56.964;24.016;2023-09-19T08:29:30;22.20;;;11.98;;
26311;SDS011;14019;56.964;24.016;2023-09-19T08:32:18;17.90;;;12.30;;
26311;SDS011;14019;56.964;24.016;2023-09-19T08:35:10;18.02;;;12.30;;
26311;SDS011;14019;56.964;24.016;2023-09-19T08:37:56;15.43;;;11.88;;
26311;SDS011;14019;56.964;24.016;2023-09-19T08:40:43;19.10;;;11.63;;
26311;SDS011;14019;56.964;24.016;2023-09-19T08:43:29;16.73;;;11.27;;
26311;SDS011;14019;56.964;24.016;2023-09-19T08:46:15;18.35;;;11.68;;
26311;SDS011;14019;56.964;24.016;2023-09-19T08:49:07;17.15;;;12.05;;
26311;SDS011;14019;56.964;24.016;2023-09-19T08:52:00;16.55;;;11.35;;
26311;SDS011;14019;56.964;24.016;2023-09-19T08:54:47;14.00;;;11.18;;
26311;SDS011;14019;56.964;24.016;2023-09-19T08:57:35;20.25;;;11.38;;
26311;SDS011;14019;56.964;24.016;2023-09-19T09:00:27;15.13;;;11.50;;
26311;SDS011;14019;56.964;24.016;2023-09-19T09:03:15;18.95;;;11.85;;
26311;SDS011;14019;56.964;24.016;2023-09-19T09:06:04;16.52;;;11.35;;
26311;SDS011;14019;56.964;24.016;2023-09-19T09:08:51;14.63;;;10.27;;
26311;SDS011;14019;56.964;24.016;2023-09-19T09:11:38;18.80;;;10.77;;
26311;SDS011;14019;56.964;24.016;2023-09-19T09:14:25;15.40;;;10.82;;
26311;SDS011;14019;56.964;24.016;2023-09-19T09:17:11;15.07;;;10.82;;
26311;SDS011;14019;56.964;24.016;2023-09-19T09:19:57;14.60;;;11.02;;
26311;SDS011;14019;56.964;24.016;2023-09-19T09:22:53;15.70;;;11.02;;
26311;SDS011;14019;56.964;24.016;2023-09-19T09:26:14;19.92;;;10.95;;
26311;SDS011;14019;56.964;24.016;2023-09-19T09:28:54;18.95;;;10.93;;
26311;SDS011;14019;56.964;24.016;2023-09-19T09:31:41;14.75;;;11.05;;
26311;SDS011;14019;56.964;24.016;2023-09-19T09:34:34;15.05;;;10.55;;
26311;SDS011;14019;56.964;24.016;2023-09-19T09:37:21;18.98;;;10.80;;
26311;SDS011;14019;56.964;24.016;2023-09-19T09:40:08;18.60;;;10.57;;
26311;SDS011;14019;56.964;24.016;2023-09-19T09:43:00;19.15;;;11.40;;
26311;SDS011;14019;56.964;24.016;2023-09-19T09:45:46;16.42;;;11.02;;
26311;SDS011;14019;56.964;24.016;2023-09-19T09:48:42;14.40;;;10.68;;
26311;SDS011;14019;56.964;24.016;2023-09-19T09:51:31;19.13;;;10.73;;
26311;SDS011;14019;56.964;24.016;2023-09-19T09:54:18;15.07;;;10.43;;
26311;SDS011;14019;56.964;24.016;2023-09-19T09:57:08;15.55;;;10.32;;
26311;SDS011;14019;56.964;24.016;2023-09-19T10:00:06;19.10;;;10.40;;
26311;SDS011;14019;56.964;24.016;2023-09-19T10:02:59;19.58;;;10.50;;
26311;SDS011;14019;56.964;24.016;2023-09-19T10:05:46;20.38;;;10.13;;
26311;SDS011;14019;56.964;24.016;2023-09-19T10:08:32;16.50;;;10.63;;
26311;SDS011;14019;56.964;24.016;2023-09-19T10:11:19;14.98;;;10.27;;
26311;SDS011;14019;56.964;24.016;2023-09-19T10:14:09;17.13;;;10.30;;
26311;SDS011;14019;56.964;24.016;2023-09-19T10:16:58;18.13;;;10.27;;
26311;SDS011;14019;56.964;24.016;2023-09-19T10:19:56;15.43;;;10.10;;
26311;SDS011;14019;56.964;24.016;2023-09-19T10:22:51;16.67;;;10.15;;
26311;SDS011;14019;56.964;24.016;2023-09-19T10:25:43;18.95;;;9.95;;
26311;SDS011;14019;56.964;24.016;2023-09-19T10:28:33;13.50;;;10.15;;
26311;SDS011;14019;56.964;24.016;2023-09-19T10:31:21;16.88;;;9.85;;
26311;SDS011;14019;56.964;24.016;2023-09-19T10:34:09;16.00;;;10.45;;
26311;SDS011;14019;56.964;24.016;2023-09-19T10:36:56;17.98;;;10.00;;
26311;SDS011;14019;56.964;24.016;2023-09-19T10:39:46;13.95;;;10.25;;
26311;SDS011;14019;56.964;24.016;2023-09-19T10:42:33;14.68;;;9.82;;
26311;SDS011;14019;56.964;24.016;2023-09-19T10:45:23;15.48;;;10.38;;
26311;SDS011;14019;56.964;24.016;2023-09-19T10:48:11;15.98;;;9.85;;
26311;SDS011;14019;56.964;24.016;2023-09-19T10:51:02;14.48;;;9.73;;
26311;SDS011;14019;56.964;24.016;2023-09-19T10:53:56;12.93;;;10.02;;
26311;SDS011;14019;56.964;24.016;2023-09-19T10:56:49;17.23;;;10.75;;
26311;SDS011;14019;56.964;24.016;2023-09-19T10:59:37;17.00;;;10.30;;
26311;SDS011;14019;56.964;24.016;2023-09-19T11:02:24;12.73;;;9.88;;
26311;SDS011;14019;56.964;24.016;2023-09-19T11:05:12;15.77;;;10.25;;
26311;SDS011;14019;56.964;24.016;2023-09-19T11:07:59;12.55;;;10.05;;
26311;SDS011;14019;56.964;24.016;2023-09-19T11:10:50;13.70;;;10.25;;
26311;SDS011;14019;56.964;24.016;2023-09-19T11:13:37;15.55;;;10.52;;
26311;SDS011;14019;56.964;24.016;2023-09-19T11:16:23;18.15;;;10.73;;
26311;SDS011;14019;56.964;24.016;2023-09-19T11:19:09;15.48;;;10.48;;
26311;SDS011;14019;56.964;24.016;2023-09-19T11:21:56;15.82;;;10.40;;
26311;SDS011;14019;56.964;24.016;2023-09-19T11:24:44;16.27;;;10.27;;
26311;SDS011;14019;56.964;24.016;2023-09-19T11:27:31;14.45;;;11.02;;
26311;SDS011;14019;56.964;24.016;2023-09-19T11:30:26;14.25;;;10.50;;
26311;SDS011;14019;56.964;24.016;2023-09-19T11:33:22;15.68;;;10.40;;
26311;SDS011;14019;56.964;24.016;2023-09-19T11:36:14;20.35;;;10.23;;
26311;SDS011;14019;56.964;24.016;2023-09-19T11:39:01;16.65;;;10.23;;
26311;SDS011;14019;56.964;24.016;2023-09-19T11:44:43;15.20;;;10.48;;
26311;SDS011;14019;56.964;24.016;2023-09-19T11:47:30;19.85;;;10.80;;
26311;SDS011;14019;56.964;24.016;2023-09-19T11:50:19;13.55;;;10.10;;
26311;SDS011;14019;56.964;24.016;2023-09-19T11:53:06;15.85;;;10.57;;
26311;SDS011;14019;56.964;24.016;2023-09-19T11:55:55;14.07;;;10.35;;
26311;SDS011;14019;56.964;24.016;2023-09-19T11:58:42;19.27;;;10.43;;
26311;SDS011;14019;56.964;24.016;2023-09-19T12:01:30;18.80;;;11.35;;
26311;SDS011;14019;56.964;24.016;2023-09-19T12:04:18;21.00;;;10.85;;
26311;SDS011;14019;56.964;24.016;2023-09-19T12:07:07;15.20;;;10.75;;
26311;SDS011;14019;56.964;24.016;2023-09-19T12:10:05;16.17;;;10.60;;
26311;SDS011;14019;56.964;24.016;2023-09-19T12:12:54;18.50;;;11.27;;
26311;SDS011;14019;56.964;24.016;2023-09-19T12:15:41;21.50;;;11.43;;
26311;SDS011;14019;56.964;24.016;2023-09-19T12:18:30;19.73;;;11.52;;
26311;SDS011;14019;56.964;24.016;2023-09-19T12:21:24;18.63;;;11.55;;
26311;SDS011;14019;56.964;24.016;2023-09-19T12:24:12;18.85;;;12.10;;
26311;SDS011;14019;56.964;24.016;2023-09-19T12:27:06;26.23;;;12.20;;
26311;SDS011;14019;56.964;24.016;2023-09-19T12:29:53;24.20;;;11.77;;
26311;SDS011;14019;56.964;24.016;2023-09-19T12:32:40;21.42;;;12.20;;
26311;SDS011;14019;56.964;24.016;2023-09-19T12:35:30;22.38;;;12.13;;
26311;SDS011;14019;56.964;24.016;2023-09-19T12:41:08;27.20;;;12.13;;
26311;SDS011;14019;56.964;24.016;2023-09-19T12:43:55;22.38;;;12.80;;
26311;SDS011;14019;56.964;24.016;2023-09-19T12:46:43;23.00;;;13.82;;
26311;SDS011;14019;56.964;24.016;2023-09-19T12:49:30;22.60;;;13.60;;
26311;SDS011;14019;56.964;24.016;2023-09-19T12:52:16;24.73;;;14.00;;
26311;SDS011;14019;56.964;24.016;2023-09-19T12:55:05;19.65;;;14.02;;
26311;SDS011;14019;56.964;24.016;2023-09-19T13:00:48;24.45;;;15.70;;
26311;SDS011;14019;56.964;24.016;2023-09-19T13:03:37;25.70;;;15.90;;
26311;SDS011;14019;56.964;24.016;2023-09-19T13:06:37;26.48;;;16.63;;
26311;SDS011;14019;56.964;24.016;2023-09-19T13:09:29;24.67;;;16.90;;
26311;SDS011;14019;56.964;24.016;2023-09-19T13:12:36;25.70;;;17.40;;
26311;SDS011;14019;56.964;24.016;2023-09-19T13:15:24;29.95;;;19.15;;
26311;SDS011;14019;56.964;24.016;2023-09-19T13:18:14;29.95;;;19.55;;
26311;SDS011;14019;56.964;24.016;2023-09-19T13:21:10;28.77;;;20.70;;
26311;SDS011;14019;56.964;24.016;2023-09-19T13:24:23;28.48;;;21.25;;
26311;SDS011;14019;56.964;24.016;2023-09-19T13:27:14;30.67;;;21.30;;
26311;SDS011;14019;56.964;24.016;2023-09-19T13:30:01;32.60;;;23.13;;
26311;SDS011;14019;56.964;24.016;2023-09-19T13:32:48;36.60;;;22.85;;
26311;SDS011;14019;56.964;24.016;2023-09-19T13:35:34;33.53;;;24.02;;
26311;SDS011;14019;56.964;24.016;2023-09-19T13:38:23;34.80;;;24.35;;
26311;SDS011;14019;56.964;24.016;2023-09-19T13:41:10;35.15;;;25.27;;
26311;SDS011;14019;56.964;24.016;2023-09-19T13:43:57;35.70;;;24.00;;
26311;SDS011;14019;56.964;24.016;2023-09-19T13:46:43;37.85;;;24.77;;
26311;SDS011;14019;56.964;24.016;2023-09-19T13:49:32;38.90;;;24.50;;
26311;SDS011;14019;56.964;24.016;2023-09-19T13:52:19;35.45;;;24.70;;
26311;SDS011;14019;56.964;24.016;2023-09-19T13:55:05;32.72;;;23.90;;
26311;SDS011;14019;56.964;24.016;2023-09-19T13:57:52;35.97;;;23.60;;
26311;SDS011;14019;56.964;24.016;2023-09-19T14:00:41;34.88;;;24.05;;
26311;SDS011;14019;56.964;24.016;2023-09-19T14:03:28;36.80;;;25.50;;
26311;SDS011;14019;56.964;24.016;2023-09-19T14:06:14;35.45;;;25.88;;
26311;SDS011;14019;56.964;24.016;2023-09-19T14:09:01;36.03;;;25.63;;
26311;SDS011;14019;56.964;24.016;2023-09-19T14:11:47;35.97;;;24.42;;
26311;SDS011;14019;56.964;24.016;2023-09-19T14:14:33;38.83;;;25.63;;
26311;SDS011;14019;56.964;24.016;2023-09-19T14:17:20;36.25;;;24.83;;
26311;SDS011;14019;56.964;24.016;2023-09-19T14:20:06;38.10;;;24.98;;
26311;SDS011;14019;56.964;24.016;2023-09-19T14:22:56;33.72;;;24.33;;
26311;SDS011;14019;56.964;24.016;2023-09-19T14:25:44;34.40;;;24.40;;
26311;SDS011;14019;56.964;24.016;2023-09-19T14:28:31;34.70;;;24.58;;
26311;SDS011;14019;56.964;24.016;2023-09-19T14:31:18;32.38;;;24.13;;
26311;SDS011;14019;56.964;24.016;2023-09-19T14:34:05;33.95;;;24.27;;
26311;SDS011;14019;56.964;24.016;2023-09-19T14:36:51;34.25;;;23.63;;
26311;SDS011;14019;56.964;24.016;2023-09-19T14:39:40;32.50;;;23.50;;
26311;SDS011;14019;56.964;24.016;2023-09-19T14:42:29;37.15;;;25.42;;
26311;SDS011;14019;56.964;24.016;2023-09-19T14:45:16;32.17;;;23.63;;
26311;SDS011;14019;56.964;24.016;2023-09-19T14:48:03;33.75;;;23.27;;
26311;SDS011;14019;56.964;24.016;2023-09-19T14:50:50;39.42;;;25.15;;
26311;SDS011;14019;56.964;24.016;2023-09-19T14:53:37;34.67;;;24.15;;
26311;SDS011;14019;56.964;24.016;2023-09-19T14:56:23;32.08;;;23.85;;
26311;SDS011;14019;56.964;24.016;2023-09-19T14:59:11;32.00;;;22.63;;
26311;SDS011;14019;56.964;24.016;2023-09-19T15:01:57;32.28;;;23.38;;
26311;SDS011;14019;56.964;24.016;2023-09-19T15:04:44;31.00;;;22.83;;
26311;SDS011;14019;56.964;24.016;2023-09-19T15:07:32;28.58;;;21.63;;
26311;SDS011;14019;56.964;24.016;2023-09-19T15:10:19;28.55;;;21.35;;
26311;SDS011;14019;56.964;24.016;2023-09-19T15:13:05;29.27;;;20.95;;
26311;SDS011;14019;56.964;24.016;2023-09-19T15:15:51;32.50;;;21.08;;
26311;SDS011;14019;56.964;24.016;2023-09-19T15:18:43;31.42;;;21.15;;
26311;SDS011;14019;56.964;24.016;2023-09-19T15:21:32;29.02;;;20.23;;
26311;SDS011;14019;56.964;24.016;2023-09-19T15:24:19;27.50;;;20.10;;
26311;SDS011;14019;56.964;24.016;2023-09-19T15:27:05;32.33;;;20.48;;
26311;SDS011;14019;56.964;24.016;2023-09-19T15:29:52;29.55;;;20.83;;
26311;SDS011;14019;56.964;24.016;2023-09-19T15:32:38;27.80;;;20.15;;
26311;SDS011;14019;56.964;24.016;2023-09-19T15:35:24;27.27;;;19.10;;
26311;SDS011;14019;56.964;24.016;2023-09-19T15:38:10;27.48;;;19.92;;
26311;SDS011;14019;56.964;24.016;2023-09-19T15:41:00;27.75;;;18.88;;
26311;SDS011;14019;56.964;24.016;2023-09-19T15:43:47;25.15;;;17.65;;
26311;SDS011;14019;56.964;24.016;2023-09-19T15:46:33;24.30;;;17.70;;
26311;SDS011;14019;56.964;24.016;2023-09-19T15:49:21;25.63;;;18.90;;
26311;SDS011;14019;56.964;24.016;2023-09-19T15:52:08;26.05;;;18.00;;
26311;SDS011;14019;56.964;24.016;2023-09-19T15:54:54;24.95;;;17.90;;
26311;SDS011;14019;56.964;24.016;2023-09-19T15:57:40;25.67;;;18.58;;
26311;SDS011;14019;56.964;24.016;2023-09-19T16:00:27;26.02;;;17.35;;
26311;SDS011;14019;56.964;24.016;2023-09-19T16:03:13;26.15;;;18.02;;
26311;SDS011;14019;56.964;24.016;2023-09-19T16:05:59;25.65;;;16.88;;
26311;SDS011;14019;56.964;24.016;2023-09-19T16:08:46;24.40;;;16.90;;
26311;SDS011;14019;56.964;24.016;2023-09-19T16:11:33;21.55;;;15.93;;
26311;SDS011;14019;56.964;24.016;2023-09-19T16:14:20;20.27;;;14.95;;
26311;SDS011;14019;56.964;24.016;2023-09-19T16:17:07;22.38;;;15.82;;
26311;SDS011;14019;56.964;24.016;2023-09-19T16:19:53;21.60;;;14.65;;
26311;SDS011;14019;56.964;24.016;2023-09-19T16:22:40;22.20;;;14.82;;
26311;SDS011;14019;56.964;24.016;2023-09-19T16:25:26;22.63;;;14.40;;
26311;SDS011;14019;56.964;24.016;2023-09-19T16:28:12;19.90;;;14.13;;
26311;SDS011;14019;56.964;24.016;2023-09-19T16:30:59;20.55;;;14.20;;
26311;SDS011;14019;56.964;24.016;2023-09-19T16:33:45;20.63;;;14.45;;
26311;SDS011;14019;56.964;24.016;2023-09-19T16:36:32;19.38;;;13.85;;
26311;SDS011;14019;56.964;24.016;2023-09-19T16:39:19;18.48;;;13.60;;
26311;SDS011;14019;56.964;24.016;2023-09-19T16:42:06;19.65;;;13.75;;